Terminal Aerodrome Forecast
Issued by NWS Caribou, ME

Current Version | Previous Version | Text Only | Print | Product List | Glossary On
Versions: 1 2 3 4 5 6 7 8 9 10 11 12 13 14 15 16 17 18 19 20 21 22
000
FTUS41 KCAR 302300
TAFCAR
TAF
KCAR 302321Z 3100/3124 VRB03KT P6SM VCSH SCT050 OVC080
      TEMPO 3100/3101 +SHRA OVC050
     FM310200 VRB03KT P6SM SCT100
     FM311700 16006KT P6SM VCTS SCT040 BKN070CB=

USA.gov is the U.S. government's official web portal to all federal, state and local government web resources and services.